sensor_id;sensor_type;location;lat;lon;timestamp;P1;durP1;ratioP1;P2;durP2;ratioP2
15944;SDS011;30172;48.832;8.732;2023-08-17T00:01:59;4.30;;;3.55;;
15944;SDS011;30172;48.832;8.732;2023-08-17T00:04:25;5.40;;;3.40;;
15944;SDS011;30172;48.832;8.732;2023-08-17T00:06:50;3.97;;;3.40;;
15944;SDS011;30172;48.832;8.732;2023-08-17T00:09:16;4.00;;;3.58;;
15944;SDS011;30172;48.832;8.732;2023-08-17T00:11:41;3.72;;;3.22;;
15944;SDS011;30172;48.832;8.732;2023-08-17T00:14:06;4.75;;;4.18;;
15944;SDS011;30172;48.832;8.732;2023-08-17T00:16:32;4.40;;;3.90;;
15944;SDS011;30172;48.832;8.732;2023-08-17T00:18:57;4.05;;;3.65;;
15944;SDS011;30172;48.832;8.732;2023-08-17T00:21:22;4.40;;;3.90;;
15944;SDS011;30172;48.832;8.732;2023-08-17T00:23:48;5.88;;;4.53;;
15944;SDS011;30172;48.832;8.732;2023-08-17T00:26:14;4.63;;;3.83;;
15944;SDS011;30172;48.832;8.732;2023-08-17T00:28:39;4.93;;;3.88;;
15944;SDS011;30172;48.832;8.732;2023-08-17T00:31:05;5.15;;;4.50;;
15944;SDS011;30172;48.832;8.732;2023-08-17T00:33:30;4.90;;;4.13;;
15944;SDS011;30172;48.832;8.732;2023-08-17T00:35:55;4.93;;;4.32;;
15944;SDS011;30172;48.832;8.732;2023-08-17T00:38:21;4.82;;;4.32;;
15944;SDS011;30172;48.832;8.732;2023-08-17T00:40:46;6.15;;;4.72;;
15944;SDS011;30172;48.832;8.732;2023-08-17T00:43:11;5.68;;;4.47;;
15944;SDS011;30172;48.832;8.732;2023-08-17T00:45:37;4.43;;;4.03;;
15944;SDS011;30172;48.832;8.732;2023-08-17T00:48:02;4.95;;;4.43;;
15944;SDS011;30172;48.832;8.732;2023-08-17T00:50:30;5.30;;;4.80;;
15944;SDS011;30172;48.832;8.732;2023-08-17T00:52:55;5.57;;;5.07;;
15944;SDS011;30172;48.832;8.732;2023-08-17T00:55:21;5.07;;;4.65;;
15944;SDS011;30172;48.832;8.732;2023-08-17T00:57:46;4.90;;;4.50;;
15944;SDS011;30172;48.832;8.732;2023-08-17T01:00:12;6.72;;;4.72;;
15944;SDS011;30172;48.832;8.732;2023-08-17T01:02:38;4.70;;;4.20;;
15944;SDS011;30172;48.832;8.732;2023-08-17T01:05:05;5.35;;;4.85;;
15944;SDS011;30172;48.832;8.732;2023-08-17T01:07:31;4.68;;;4.28;;
15944;SDS011;30172;48.832;8.732;2023-08-17T01:09:56;5.45;;;4.25;;
15944;SDS011;30172;48.832;8.732;2023-08-17T01:12:24;5.25;;;4.63;;
15944;SDS011;30172;48.832;8.732;2023-08-17T01:14:56;4.60;;;4.20;;
15944;SDS011;30172;48.832;8.732;2023-08-17T01:17:33;5.07;;;4.57;;
15944;SDS011;30172;48.832;8.732;2023-08-17T01:20:22;6.93;;;5.10;;
15944;SDS011;30172;48.832;8.732;2023-08-17T01:22:48;8.27;;;4.78;;
15944;SDS011;30172;48.832;8.732;2023-08-17T01:25:15;5.13;;;4.65;;
15944;SDS011;30172;48.832;8.732;2023-08-17T01:27:42;5.82;;;4.95;;
15944;SDS011;30172;48.832;8.732;2023-08-17T01:30:09;5.07;;;4.10;;
15944;SDS011;30172;48.832;8.732;2023-08-17T01:32:40;5.72;;;4.80;;
15944;SDS011;30172;48.832;8.732;2023-08-17T01:35:09;4.82;;;4.43;;
15944;SDS011;30172;48.832;8.732;2023-08-17T01:37:39;5.07;;;4.57;;
15944;SDS011;30172;48.832;8.732;2023-08-17T01:40:06;4.50;;;4.10;;
15944;SDS011;30172;48.832;8.732;2023-08-17T01:42:32;5.47;;;4.47;;
15944;SDS011;30172;48.832;8.732;2023-08-17T01:44:58;5.88;;;5.28;;
15944;SDS011;30172;48.832;8.732;2023-08-17T01:47:23;6.05;;;4.20;;
15944;SDS011;30172;48.832;8.732;2023-08-17T01:49:49;4.97;;;4.57;;
15944;SDS011;30172;48.832;8.732;2023-08-17T01:52:15;5.10;;;4.30;;
15944;SDS011;30172;48.832;8.732;2023-08-17T01:54:40;6.30;;;4.20;;
15944;SDS011;30172;48.832;8.732;2023-08-17T01:57:05;6.47;;;4.93;;
15944;SDS011;30172;48.832;8.732;2023-08-17T01:59:31;4.82;;;4.43;;
15944;SDS011;30172;48.832;8.732;2023-08-17T02:01:56;4.70;;;4.20;;
15944;SDS011;30172;48.832;8.732;2023-08-17T02:04:21;6.88;;;4.53;;
15944;SDS011;30172;48.832;8.732;2023-08-17T02:06:47;5.20;;;4.00;;
15944;SDS011;30172;48.832;8.732;2023-08-17T02:09:12;8.32;;;4.20;;
15944;SDS011;30172;48.832;8.732;2023-08-17T02:11:37;5.00;;;4.47;;
15944;SDS011;30172;48.832;8.732;2023-08-17T02:14:03;6.97;;;4.78;;
15944;SDS011;30172;48.832;8.732;2023-08-17T02:16:28;7.13;;;5.50;;
15944;SDS011;30172;48.832;8.732;2023-08-17T02:18:53;6.82;;;6.18;;
15944;SDS011;30172;48.832;8.732;2023-08-17T02:21:18;8.38;;;6.70;;
15944;SDS011;30172;48.832;8.732;2023-08-17T02:23:44;9.68;;;8.00;;
15944;SDS011;30172;48.832;8.732;2023-08-17T02:26:09;10.32;;;9.25;;
15944;SDS011;30172;48.832;8.732;2023-08-17T02:28:35;11.30;;;10.00;;
15944;SDS011;30172;48.832;8.732;2023-08-17T02:31:00;14.32;;;10.75;;
15944;SDS011;30172;48.832;8.732;2023-08-17T02:33:25;13.00;;;11.60;;
15944;SDS011;30172;48.832;8.732;2023-08-17T02:35:51;12.80;;;10.73;;
15944;SDS011;30172;48.832;8.732;2023-08-17T02:38:17;16.27;;;12.10;;
15944;SDS011;30172;48.832;8.732;2023-08-17T02:40:42;17.88;;;13.07;;
15944;SDS011;30172;48.832;8.732;2023-08-17T02:43:07;23.52;;;15.13;;
15944;SDS011;30172;48.832;8.732;2023-08-17T02:45:33;22.75;;;14.50;;
15944;SDS011;30172;48.832;8.732;2023-08-17T02:47:59;23.42;;;15.52;;
15944;SDS011;30172;48.832;8.732;2023-08-17T02:50:24;20.08;;;15.50;;
15944;SDS011;30172;48.832;8.732;2023-08-17T02:52:49;21.52;;;15.18;;
15944;SDS011;30172;48.832;8.732;2023-08-17T02:55:15;19.60;;;13.32;;
15944;SDS011;30172;48.832;8.732;2023-08-17T02:57:40;22.90;;;13.98;;
15944;SDS011;30172;48.832;8.732;2023-08-17T03:00:05;27.13;;;14.27;;
15944;SDS011;30172;48.832;8.732;2023-08-17T03:02:31;23.90;;;14.23;;
15944;SDS011;30172;48.832;8.732;2023-08-17T03:04:57;30.35;;;13.98;;
15944;SDS011;30172;48.832;8.732;2023-08-17T03:07:22;15.70;;;13.10;;
15944;SDS011;30172;48.832;8.732;2023-08-17T03:09:47;19.35;;;13.35;;
15944;SDS011;30172;48.832;8.732;2023-08-17T03:12:13;34.42;;;13.60;;
15944;SDS011;30172;48.832;8.732;2023-08-17T03:14:38;33.42;;;13.88;;
15944;SDS011;30172;48.832;8.732;2023-08-17T03:17:03;15.63;;;12.48;;
15944;SDS011;30172;48.832;8.732;2023-08-17T03:19:28;21.50;;;12.90;;
15944;SDS011;30172;48.832;8.732;2023-08-17T03:21:54;19.83;;;12.40;;
15944;SDS011;30172;48.832;8.732;2023-08-17T03:24:19;23.73;;;12.68;;
15944;SDS011;30172;48.832;8.732;2023-08-17T03:26:44;22.17;;;12.48;;
15944;SDS011;30172;48.832;8.732;2023-08-17T03:29:10;25.00;;;11.95;;
15944;SDS011;30172;48.832;8.732;2023-08-17T03:31:35;16.30;;;11.20;;
15944;SDS011;30172;48.832;8.732;2023-08-17T03:34:00;14.57;;;10.85;;
15944;SDS011;30172;48.832;8.732;2023-08-17T03:36:26;18.92;;;11.98;;
15944;SDS011;30172;48.832;8.732;2023-08-17T03:38:51;23.20;;;12.07;;
15944;SDS011;30172;48.832;8.732;2023-08-17T03:41:16;15.63;;;11.45;;
15944;SDS011;30172;48.832;8.732;2023-08-17T03:43:42;18.00;;;10.45;;
15944;SDS011;30172;48.832;8.732;2023-08-17T03:46:07;22.08;;;9.90;;
15944;SDS011;30172;48.832;8.732;2023-08-17T03:48:32;13.48;;;9.80;;
15944;SDS011;30172;48.832;8.732;2023-08-17T03:50:58;14.82;;;9.95;;
15944;SDS011;30172;48.832;8.732;2023-08-17T03:53:23;14.20;;;10.20;;
15944;SDS011;30172;48.832;8.732;2023-08-17T03:55:49;27.77;;;11.57;;
15944;SDS011;30172;48.832;8.732;2023-08-17T03:58:15;12.00;;;10.77;;
15944;SDS011;30172;48.832;8.732;2023-08-17T04:00:40;29.88;;;11.10;;
15944;SDS011;30172;48.832;8.732;2023-08-17T04:03:06;13.85;;;10.40;;
15944;SDS011;30172;48.832;8.732;2023-08-17T04:05:32;11.10;;;9.82;;
15944;SDS011;30172;48.832;8.732;2023-08-17T04:07:58;14.60;;;9.50;;
15944;SDS011;30172;48.832;8.732;2023-08-17T04:10:26;10.10;;;8.52;;
15944;SDS011;30172;48.832;8.732;2023-08-17T04:12:52;16.65;;;9.85;;
15944;SDS011;30172;48.832;8.732;2023-08-17T04:15:17;13.80;;;9.07;;
15944;SDS011;30172;48.832;8.732;2023-08-17T04:17:43;9.38;;;8.43;;
15944;SDS011;30172;48.832;8.732;2023-08-17T04:20:08;11.40;;;8.50;;
15944;SDS011;30172;48.832;8.732;2023-08-17T04:22:34;8.27;;;7.57;;
15944;SDS011;30172;48.832;8.732;2023-08-17T04:24:59;7.90;;;7.13;;
15944;SDS011;30172;48.832;8.732;2023-08-17T04:27:25;6.47;;;5.93;;
15944;SDS011;30172;48.832;8.732;2023-08-17T04:29:50;8.80;;;8.00;;
15944;SDS011;30172;48.832;8.732;2023-08-17T04:32:15;7.88;;;7.15;;
15944;SDS011;30172;48.832;8.732;2023-08-17T04:34:42;8.38;;;6.90;;
15944;SDS011;30172;48.832;8.732;2023-08-17T04:37:08;8.70;;;6.95;;
15944;SDS011;30172;48.832;8.732;2023-08-17T04:39:33;6.72;;;6.13;;
15944;SDS011;30172;48.832;8.732;2023-08-17T04:41:58;5.95;;;5.45;;
15944;SDS011;30172;48.832;8.732;2023-08-17T04:44:24;7.65;;;5.80;;
15944;SDS011;30172;48.832;8.732;2023-08-17T04:46:49;6.28;;;5.78;;
15944;SDS011;30172;48.832;8.732;2023-08-17T04:49:14;7.60;;;5.55;;
15944;SDS011;30172;48.832;8.732;2023-08-17T04:51:39;5.28;;;4.78;;
15944;SDS011;30172;48.832;8.732;2023-08-17T04:54:05;7.10;;;5.18;;
15944;SDS011;30172;48.832;8.732;2023-08-17T04:56:30;5.28;;;4.60;;
15944;SDS011;30172;48.832;8.732;2023-08-17T04:58:55;9.95;;;4.80;;
15944;SDS011;30172;48.832;8.732;2023-08-17T05:01:21;8.73;;;5.05;;
15944;SDS011;30172;48.832;8.732;2023-08-17T05:03:46;4.63;;;4.25;;
15944;SDS011;30172;48.832;8.732;2023-08-17T05:06:11;6.35;;;4.05;;
15944;SDS011;30172;48.832;8.732;2023-08-17T05:08:37;4.75;;;4.25;;
15944;SDS011;30172;48.832;8.732;2023-08-17T05:11:02;4.75;;;3.88;;
15944;SDS011;30172;48.832;8.732;2023-08-17T05:13:27;4.68;;;4.28;;
15944;SDS011;30172;48.832;8.732;2023-08-17T05:15:53;4.50;;;4.07;;
15944;SDS011;30172;48.832;8.732;2023-08-17T05:18:18;6.43;;;4.30;;
15944;SDS011;30172;48.832;8.732;2023-08-17T05:20:43;4.20;;;3.80;;
15944;SDS011;30172;48.832;8.732;2023-08-17T05:23:09;4.07;;;3.80;;
15944;SDS011;30172;48.832;8.732;2023-08-17T05:25:34;4.57;;;4.18;;
15944;SDS011;30172;48.832;8.732;2023-08-17T05:27:59;4.55;;;4.15;;
15944;SDS011;30172;48.832;8.732;2023-08-17T05:30:25;4.28;;;3.88;;
15944;SDS011;30172;48.832;8.732;2023-08-17T05:32:50;3.97;;;3.67;;
15944;SDS011;30172;48.832;8.732;2023-08-17T05:35:15;3.97;;;3.60;;
15944;SDS011;30172;48.832;8.732;2023-08-17T05:37:41;4.20;;;3.90;;
15944;SDS011;30172;48.832;8.732;2023-08-17T05:40:06;4.00;;;3.70;;
15944;SDS011;30172;48.832;8.732;2023-08-17T05:42:33;3.40;;;3.10;;
15944;SDS011;30172;48.832;8.732;2023-08-17T05:44:59;3.58;;;3.28;;
15944;SDS011;30172;48.832;8.732;2023-08-17T05:47:24;4.00;;;3.47;;
15944;SDS011;30172;48.832;8.732;2023-08-17T05:49:49;4.00;;;3.70;;
15944;SDS011;30172;48.832;8.732;2023-08-17T05:52:15;3.45;;;3.15;;
15944;SDS011;30172;48.832;8.732;2023-08-17T05:54:40;3.80;;;3.50;;
15944;SDS011;30172;48.832;8.732;2023-08-17T05:57:05;4.45;;;4.05;;
15944;SDS011;30172;48.832;8.732;2023-08-17T05:59:31;4.50;;;4.15;;
15944;SDS011;30172;48.832;8.732;2023-08-17T06:01:56;4.28;;;3.92;;
15944;SDS011;30172;48.832;8.732;2023-08-17T06:04:21;4.40;;;4.03;;
15944;SDS011;30172;48.832;8.732;2023-08-17T06:06:47;4.43;;;4.07;;
15944;SDS011;30172;48.832;8.732;2023-08-17T06:09:12;4.85;;;4.38;;
15944;SDS011;30172;48.832;8.732;2023-08-17T06:11:37;4.40;;;4.00;;
15944;SDS011;30172;48.832;8.732;2023-08-17T06:14:03;4.07;;;3.78;;
15944;SDS011;30172;48.832;8.732;2023-08-17T06:16:28;4.78;;;4.32;;
15944;SDS011;30172;48.832;8.732;2023-08-17T06:18:54;4.30;;;3.90;;
15944;SDS011;30172;48.832;8.732;2023-08-17T06:21:19;4.43;;;4.13;;
15944;SDS011;30172;48.832;8.732;2023-08-17T06:23:44;4.07;;;3.75;;
15944;SDS011;30172;48.832;8.732;2023-08-17T06:26:10;4.97;;;4.57;;
15944;SDS011;30172;48.832;8.732;2023-08-17T06:28:35;5.78;;;5.07;;
15944;SDS011;30172;48.832;8.732;2023-08-17T06:31:00;5.70;;;5.20;;
15944;SDS011;30172;48.832;8.732;2023-08-17T06:33:26;5.43;;;4.82;;
15944;SDS011;30172;48.832;8.732;2023-08-17T06:35:51;5.28;;;4.78;;
15944;SDS011;30172;48.832;8.732;2023-08-17T06:38:17;4.30;;;4.00;;
15944;SDS011;30172;48.832;8.732;2023-08-17T06:40:42;4.63;;;4.22;;
15944;SDS011;30172;48.832;8.732;2023-08-17T06:43:07;3.80;;;3.50;;
15944;SDS011;30172;48.832;8.732;2023-08-17T06:45:34;3.28;;;2.97;;
15944;SDS011;30172;48.832;8.732;2023-08-17T06:47:59;4.38;;;3.58;;
15944;SDS011;30172;48.832;8.732;2023-08-17T06:50:25;3.00;;;2.70;;
15944;SDS011;30172;48.832;8.732;2023-08-17T06:52:51;5.18;;;3.13;;
15944;SDS011;30172;48.832;8.732;2023-08-17T06:55:17;3.17;;;2.88;;
15944;SDS011;30172;48.832;8.732;2023-08-17T06:57:42;4.03;;;3.72;;
15944;SDS011;30172;48.832;8.732;2023-08-17T07:00:08;5.13;;;4.63;;
15944;SDS011;30172;48.832;8.732;2023-08-17T07:02:33;5.15;;;4.65;;
15944;SDS011;30172;48.832;8.732;2023-08-17T07:04:59;4.53;;;4.10;;
15944;SDS011;30172;48.832;8.732;2023-08-17T07:07:25;3.80;;;3.50;;
15944;SDS011;30172;48.832;8.732;2023-08-17T07:09:50;3.30;;;3.10;;
15944;SDS011;30172;48.832;8.732;2023-08-17T07:12:15;3.08;;;2.38;;
15944;SDS011;30172;48.832;8.732;2023-08-17T07:14:41;2.88;;;2.65;;
15944;SDS011;30172;48.832;8.732;2023-08-17T07:17:06;3.85;;;2.92;;
15944;SDS011;30172;48.832;8.732;2023-08-17T07:19:32;3.65;;;2.70;;
15944;SDS011;30172;48.832;8.732;2023-08-17T07:21:57;5.88;;;2.70;;
15944;SDS011;30172;48.832;8.732;2023-08-17T07:24:22;3.65;;;3.20;;
15944;SDS011;30172;48.832;8.732;2023-08-17T07:26:48;3.38;;;2.97;;
15944;SDS011;30172;48.832;8.732;2023-08-17T07:29:13;4.00;;;2.83;;
15944;SDS011;30172;48.832;8.732;2023-08-17T07:31:38;3.75;;;2.83;;
15944;SDS011;30172;48.832;8.732;2023-08-17T07:34:04;3.33;;;2.92;;
15944;SDS011;30172;48.832;8.732;2023-08-17T07:36:30;4.22;;;3.03;;
15944;SDS011;30172;48.832;8.732;2023-08-17T07:38:56;3.55;;;3.22;;
15944;SDS011;30172;48.832;8.732;2023-08-17T07:41:21;3.45;;;3.10;;
15944;SDS011;30172;48.832;8.732;2023-08-17T07:43:46;4.80;;;3.17;;
15944;SDS011;30172;48.832;8.732;2023-08-17T07:46:12;4.13;;;3.60;;
15944;SDS011;30172;48.832;8.732;2023-08-17T07:48:37;3.05;;;2.72;;
15944;SDS011;30172;48.832;8.732;2023-08-17T07:51:02;3.97;;;3.67;;
15944;SDS011;30172;48.832;8.732;2023-08-17T07:53:28;5.15;;;4.75;;
15944;SDS011;30172;48.832;8.732;2023-08-17T07:55:53;7.47;;;6.88;;
15944;SDS011;30172;48.832;8.732;2023-08-17T07:58:19;9.60;;;8.05;;
15944;SDS011;30172;48.832;8.732;2023-08-17T08:00:44;7.10;;;6.50;;
15944;SDS011;30172;48.832;8.732;2023-08-17T08:03:09;6.30;;;5.80;;
15944;SDS011;30172;48.832;8.732;2023-08-17T08:05:35;5.55;;;5.15;;
15944;SDS011;30172;48.832;8.732;2023-08-17T08:08:00;6.50;;;5.60;;
15944;SDS011;30172;48.832;8.732;2023-08-17T08:10:26;6.35;;;5.78;;
15944;SDS011;30172;48.832;8.732;2023-08-17T08:12:52;4.95;;;4.65;;
15944;SDS011;30172;48.832;8.732;2023-08-17T08:15:17;6.13;;;5.55;;
15944;SDS011;30172;48.832;8.732;2023-08-17T08:17:43;6.05;;;5.65;;
15944;SDS011;30172;48.832;8.732;2023-08-17T08:20:08;5.65;;;5.15;;
15944;SDS011;30172;48.832;8.732;2023-08-17T08:22:33;4.57;;;4.18;;
15944;SDS011;30172;48.832;8.732;2023-08-17T08:24:59;5.32;;;3.85;;
15944;SDS011;30172;48.832;8.732;2023-08-17T08:27:24;5.57;;;4.43;;
15944;SDS011;30172;48.832;8.732;2023-08-17T08:29:50;7.47;;;6.03;;
15944;SDS011;30172;48.832;8.732;2023-08-17T08:32:15;5.03;;;4.13;;
15944;SDS011;30172;48.832;8.732;2023-08-17T08:34:40;4.63;;;4.22;;
15944;SDS011;30172;48.832;8.732;2023-08-17T08:37:06;5.03;;;4.30;;
15944;SDS011;30172;48.832;8.732;2023-08-17T08:39:31;4.85;;;4.45;;
15944;SDS011;30172;48.832;8.732;2023-08-17T08:41:57;5.47;;;4.95;;
15944;SDS011;30172;48.832;8.732;2023-08-17T08:44:23;5.70;;;4.53;;
15944;SDS011;30172;48.832;8.732;2023-08-17T08:46:48;4.93;;;4.53;;
15944;SDS011;30172;48.832;8.732;2023-08-17T08:49:16;5.13;;;4.70;;
15944;SDS011;30172;48.832;8.732;2023-08-17T08:51:46;6.47;;;4.43;;
15944;SDS011;30172;48.832;8.732;2023-08-17T08:54:14;4.28;;;3.92;;
15944;SDS011;30172;48.832;8.732;2023-08-17T08:56:45;3.75;;;3.40;;
15944;SDS011;30172;48.832;8.732;2023-08-17T08:59:11;4.43;;;3.83;;
15944;SDS011;30172;48.832;8.732;2023-08-17T09:01:36;4.78;;;4.13;;
15944;SDS011;30172;48.832;8.732;2023-08-17T09:04:03;5.13;;;3.13;;
15944;SDS011;30172;48.832;8.732;2023-08-17T09:06:29;3.45;;;3.15;;
15944;SDS011;30172;48.832;8.732;2023-08-17T09:08:56;3.90;;;3.45;;
15944;SDS011;30172;48.832;8.732;2023-08-17T09:11:22;5.68;;;3.30;;
15944;SDS011;30172;48.832;8.732;2023-08-17T09:13:47;4.25;;;3.15;;
15944;SDS011;30172;48.832;8.732;2023-08-17T09:16:13;3.63;;;3.28;;
15944;SDS011;30172;48.832;8.732;2023-08-17T09:18:38;3.97;;;3.22;;
15944;SDS011;30172;48.832;8.732;2023-08-17T09:21:03;6.03;;;3.40;;
15944;SDS011;30172;48.832;8.732;2023-08-17T09:23:29;6.13;;;3.70;;
15944;SDS011;30172;48.832;8.732;2023-08-17T09:25:54;4.97;;;4.50;;
15944;SDS011;30172;48.832;8.732;2023-08-17T09:28:23;4.13;;;3.83;;
15944;SDS011;30172;48.832;8.732;2023-08-17T09:30:56;4.22;;;3.92;;
15944;SDS011;30172;48.832;8.732;2023-08-17T09:33:24;4.82;;;4.53;;
15944;SDS011;30172;48.832;8.732;2023-08-17T09:35:51;4.90;;;4.50;;
15944;SDS011;30172;48.832;8.732;2023-08-17T09:38:17;5.00;;;4.57;;
15944;SDS011;30172;48.832;8.732;2023-08-17T09:40:43;4.78;;;4.38;;
15944;SDS011;30172;48.832;8.732;2023-08-17T09:43:09;4.85;;;4.45;;
15944;SDS011;30172;48.832;8.732;2023-08-17T09:45:35;5.47;;;4.97;;
15944;SDS011;30172;48.832;8.732;2023-08-17T09:48:02;6.25;;;5.65;;
15944;SDS011;30172;48.832;8.732;2023-08-17T09:50:28;5.68;;;5.18;;
15944;SDS011;30172;48.832;8.732;2023-08-17T09:52:54;6.43;;;5.20;;
15944;SDS011;30172;48.832;8.732;2023-08-17T09:55:23;6.18;;;5.57;;
15944;SDS011;30172;48.832;8.732;2023-08-17T09:57:49;6.85;;;5.63;;
15944;SDS011;30172;48.832;8.732;2023-08-17T10:00:15;6.63;;;5.85;;
15944;SDS011;30172;48.832;8.732;2023-08-17T10:02:41;7.60;;;7.00;;
15944;SDS011;30172;48.832;8.732;2023-08-17T10:05:08;6.05;;;5.55;;
15944;SDS011;30172;48.832;8.732;2023-08-17T10:07:36;6.30;;;5.50;;
15944;SDS011;30172;48.832;8.732;2023-08-17T10:10:04;6.72;;;5.90;;
15944;SDS011;30172;48.832;8.732;2023-08-17T10:12:32;6.43;;;5.65;;
15944;SDS011;30172;48.832;8.732;2023-08-17T10:15:08;6.68;;;6.15;;
15944;SDS011;30172;48.832;8.732;2023-08-17T10:20:40;6.10;;;5.50;;
15944;SDS011;30172;48.832;8.732;2023-08-17T10:23:12;6.03;;;5.53;;
15944;SDS011;30172;48.832;8.732;2023-08-17T10:25:40;5.93;;;5.43;;
15944;SDS011;30172;48.832;8.732;2023-08-17T10:28:06;5.75;;;5.30;;
15944;SDS011;30172;48.832;8.732;2023-08-17T10:30:33;5.60;;;5.10;;
15944;SDS011;30172;48.832;8.732;2023-08-17T10:32:58;5.07;;;4.68;;
15944;SDS011;30172;48.832;8.732;2023-08-17T10:35:24;5.20;;;4.80;;
15944;SDS011;30172;48.832;8.732;2023-08-17T10:37:50;6.72;;;5.53;;
15944;SDS011;30172;48.832;8.732;2023-08-17T10:40:16;7.43;;;6.00;;
15944;SDS011;30172;48.832;8.732;2023-08-17T10:42:41;8.52;;;6.13;;
15944;SDS011;30172;48.832;8.732;2023-08-17T10:47:51;6.82;;;5.63;;
15944;SDS011;30172;48.832;8.732;2023-08-17T10:50:58;6.72;;;6.03;;
15944;SDS011;30172;48.832;8.732;2023-08-17T10:53:25;6.55;;;5.95;;
15944;SDS011;30172;48.832;8.732;2023-08-17T10:55:50;6.35;;;5.82;;
15944;SDS011;30172;48.832;8.732;2023-08-17T10:58:22;6.18;;;5.45;;
15944;SDS011;30172;48.832;8.732;2023-08-17T11:00:47;7.25;;;6.55;;
15944;SDS011;30172;48.832;8.732;2023-08-17T11:03:19;7.13;;;6.45;;
15944;SDS011;30172;48.832;8.732;2023-08-17T11:05:46;7.00;;;6.30;;
15944;SDS011;30172;48.832;8.732;2023-08-17T11:08:20;7.55;;;6.90;;
15944;SDS011;30172;48.832;8.732;2023-08-17T11:11:06;8.18;;;6.90;;
15944;SDS011;30172;48.832;8.732;2023-08-17T11:13:35;7.47;;;6.88;;
15944;SDS011;30172;48.832;8.732;2023-08-17T11:16:02;7.78;;;6.15;;
15944;SDS011;30172;48.832;8.732;2023-08-17T11:18:28;7.18;;;6.57;;
15944;SDS011;30172;48.832;8.732;2023-08-17T11:20:53;8.52;;;7.00;;
15944;SDS011;30172;48.832;8.732;2023-08-17T11:23:19;7.53;;;6.68;;
15944;SDS011;30172;48.832;8.732;2023-08-17T11:25:45;8.95;;;7.63;;
15944;SDS011;30172;48.832;8.732;2023-08-17T11:28:10;8.60;;;7.38;;
15944;SDS011;30172;48.832;8.732;2023-08-17T11:30:36;8.55;;;7.40;;
15944;SDS011;30172;48.832;8.732;2023-08-17T11:33:04;8.93;;;8.05;;
15944;SDS011;30172;48.832;8.732;2023-08-17T11:35:29;8.32;;;7.63;;
15944;SDS011;30172;48.832;8.732;2023-08-17T11:37:55;7.60;;;6.80;;
15944;SDS011;30172;48.832;8.732;2023-08-17T11:40:20;7.55;;;6.78;;
15944;SDS011;30172;48.832;8.732;2023-08-17T11:42:46;7.43;;;6.82;;
15944;SDS011;30172;48.832;8.732;2023-08-17T11:45:11;8.82;;;7.95;;
15944;SDS011;30172;48.832;8.732;2023-08-17T11:47:38;10.75;;;8.57;;
15944;SDS011;30172;48.832;8.732;2023-08-17T11:50:08;10.60;;;8.88;;
15944;SDS011;30172;48.832;8.732;2023-08-17T11:52:37;12.13;;;9.77;;
15944;SDS011;30172;48.832;8.732;2023-08-17T11:55:03;11.73;;;9.82;;
15944;SDS011;30172;48.832;8.732;2023-08-17T11:57:30;12.60;;;11.30;;
15944;SDS011;30172;48.832;8.732;2023-08-17T11:59:59;11.98;;;10.85;;
15944;SDS011;30172;48.832;8.732;2023-08-17T12:02:26;10.90;;;9.95;;
15944;SDS011;30172;48.832;8.732;2023-08-17T12:04:52;11.70;;;10.52;;
15944;SDS011;30172;48.832;8.732;2023-08-17T12:07:18;13.02;;;11.18;;
15944;SDS011;30172;48.832;8.732;2023-08-17T12:09:47;16.73;;;11.93;;
15944;SDS011;30172;48.832;8.732;2023-08-17T12:12:13;12.20;;;11.07;;
15944;SDS011;30172;48.832;8.732;2023-08-17T12:14:42;12.73;;;11.52;;
15944;SDS011;30172;48.832;8.732;2023-08-17T12:17:13;12.73;;;11.45;;
15944;SDS011;30172;48.832;8.732;2023-08-17T12:19:42;14.15;;;12.70;;
15944;SDS011;30172;48.832;8.732;2023-08-17T12:22:08;15.10;;;13.48;;
15944;SDS011;30172;48.832;8.732;2023-08-17T12:24:33;19.67;;;15.30;;
15944;SDS011;30172;48.832;8.732;2023-08-17T12:27:00;15.10;;;13.35;;
15944;SDS011;30172;48.832;8.732;2023-08-17T12:29:27;17.73;;;15.93;;
15944;SDS011;30172;48.832;8.732;2023-08-17T12:31:52;18.20;;;16.55;;
15944;SDS011;30172;48.832;8.732;2023-08-17T12:34:17;19.88;;;17.98;;
15944;SDS011;30172;48.832;8.732;2023-08-17T12:36:43;19.60;;;17.60;;
15944;SDS011;30172;48.832;8.732;2023-08-17T12:39:09;19.02;;;17.08;;
15944;SDS011;30172;48.832;8.732;2023-08-17T12:41:34;19.50;;;17.67;;
15944;SDS011;30172;48.832;8.732;2023-08-17T12:43:59;22.00;;;19.80;;
15944;SDS011;30172;48.832;8.732;2023-08-17T12:46:26;22.55;;;20.15;;
15944;SDS011;30172;48.832;8.732;2023-08-17T12:48:51;23.00;;;20.70;;
15944;SDS011;30172;48.832;8.732;2023-08-17T12:51:16;22.70;;;20.40;;
15944;SDS011;30172;48.832;8.732;2023-08-17T12:53:42;22.30;;;19.98;;
15944;SDS011;30172;48.832;8.732;2023-08-17T12:56:07;23.90;;;21.55;;
15944;SDS011;30172;48.832;8.732;2023-08-17T12:58:33;22.65;;;20.42;;
15944;SDS011;30172;48.832;8.732;2023-08-17T13:00:58;20.10;;;18.05;;
15944;SDS011;30172;48.832;8.732;2023-08-17T13:03:23;23.75;;;20.83;;
15944;SDS011;30172;48.832;8.732;2023-08-17T13:05:49;23.00;;;20.55;;
15944;SDS011;30172;48.832;8.732;2023-08-17T13:08:14;22.85;;;20.55;;
15944;SDS011;30172;48.832;8.732;2023-08-17T13:10:40;21.00;;;18.85;;
15944;SDS011;30172;48.832;8.732;2023-08-17T13:13:06;22.40;;;19.35;;
15944;SDS011;30172;48.832;8.732;2023-08-17T13:15:32;19.52;;;17.60;;
15944;SDS011;30172;48.832;8.732;2023-08-17T13:17:58;23.15;;;20.55;;
15944;SDS011;30172;48.832;8.732;2023-08-17T13:20:23;20.58;;;18.48;;
15944;SDS011;30172;48.832;8.732;2023-08-17T13:22:48;23.65;;;21.25;;
15944;SDS011;30172;48.832;8.732;2023-08-17T13:25:14;24.08;;;21.60;;
15944;SDS011;30172;48.832;8.732;2023-08-17T13:27:39;26.77;;;20.23;;
15944;SDS011;30172;48.832;8.732;2023-08-17T13:30:05;24.58;;;22.13;;
15944;SDS011;30172;48.832;8.732;2023-08-17T13:32:31;22.58;;;20.35;;
15944;SDS011;30172;48.832;8.732;2023-08-17T13:34:56;22.45;;;20.15;;
15944;SDS011;30172;48.832;8.732;2023-08-17T13:37:21;22.38;;;20.13;;
15944;SDS011;30172;48.832;8.732;2023-08-17T13:39:47;23.23;;;20.90;;
15944;SDS011;30172;48.832;8.732;2023-08-17T13:42:12;19.67;;;17.77;;
15944;SDS011;30172;48.832;8.732;2023-08-17T13:44:38;22.77;;;19.50;;
15944;SDS011;30172;48.832;8.732;2023-08-17T13:47:03;22.00;;;19.85;;
15944;SDS011;30172;48.832;8.732;2023-08-17T13:49:29;24.15;;;21.67;;
15944;SDS011;30172;48.832;8.732;2023-08-17T13:51:54;19.80;;;17.85;;
15944;SDS011;30172;48.832;8.732;2023-08-17T13:54:21;24.70;;;22.17;;
15944;SDS011;30172;48.832;8.732;2023-08-17T13:56:46;21.75;;;18.35;;
15944;SDS011;30172;48.832;8.732;2023-08-17T13:59:12;21.20;;;19.02;;
15944;SDS011;30172;48.832;8.732;2023-08-17T14:01:37;22.70;;;20.60;;
15944;SDS011;30172;48.832;8.732;2023-08-17T14:04:03;17.27;;;15.73;;
15944;SDS011;30172;48.832;8.732;2023-08-17T14:06:29;16.58;;;15.02;;
15944;SDS011;30172;48.832;8.732;2023-08-17T14:08:55;22.73;;;20.45;;
15944;SDS011;30172;48.832;8.732;2023-08-17T14:11:20;20.13;;;18.15;;
15944;SDS011;30172;48.832;8.732;2023-08-17T14:13:45;21.70;;;19.73;;
15944;SDS011;30172;48.832;8.732;2023-08-17T14:16:10;18.52;;;16.83;;
15944;SDS011;30172;48.832;8.732;2023-08-17T14:18:36;21.58;;;19.45;;
15944;SDS011;30172;48.832;8.732;2023-08-17T14:21:02;19.90;;;16.50;;
15944;SDS011;30172;48.832;8.732;2023-08-17T14:23:27;20.17;;;17.05;;
15944;SDS011;30172;48.832;8.732;2023-08-17T14:25:52;18.50;;;16.70;;
15944;SDS011;30172;48.832;8.732;2023-08-17T14:28:18;20.92;;;18.15;;
15944;SDS011;30172;48.832;8.732;2023-08-17T14:30:43;13.77;;;12.38;;
15944;SDS011;30172;48.832;8.732;2023-08-17T14:33:09;15.48;;;14.13;;
15944;SDS011;30172;48.832;8.732;2023-08-17T14:35:35;13.73;;;11.98;;
15944;SDS011;30172;48.832;8.732;2023-08-17T14:38:00;11.98;;;10.77;;
15944;SDS011;30172;48.832;8.732;2023-08-17T14:40:26;10.60;;;9.60;;